Time;durP1;ratioP1;P1;durP2;ratioP2;P2;SDS_P1;SDS_P2;PMS_P1;PMS_P2;Temp;Humidity;BMP_temperature;BMP_pressure;BME280_temperature;BME280_humidity;BME280_pressure;Samples;Min_cycle;Max_cycle;Signal;HPM_P1;HPM_P2
2021/01/31 00:02:04;;;;;;;;;;;3.50;96.20;;;;;;4344375;33;26001;-74
2021/01/31 00:04:33;;;;;;;;;;;3.50;96.10;;;;;;4344455;33;36449;-74
2021/01/31 00:07:09;;;;;;;;;;;3.50;96.20;;;;;;4346504;33;20069;-75
2021/01/31 00:09:42;;;;;;;;;;;3.50;96.20;;;;;;4345359;33;36802;-74
2021/01/31 00:12:14;;;;;;;;;;;3.50;96.10;;;;;;4346799;33;28021;-74
2021/01/31 00:14:46;;;;;;;;;;;3.50;96.10;;;;;;4348210;33;20013;-74
2021/01/31 00:17:19;;;;;;;;;;;3.50;96.10;;;;;;4348447;33;20363;-75
2021/01/31 00:19:52;;;;;;;;;;;3.50;96.10;;;;;;4334918;33;29952;-74
2021/01/31 00:22:27;;;;;;;;;;;3.50;96.10;;;;;;4348508;32;30846;-74
2021/01/31 00:25:00;;;;;;;;;;;3.50;96.00;;;;;;4335071;33;25929;-74
2021/01/31 00:27:29;;;;;;;;;;;3.40;96.00;;;;;;4347392;33;28887;-74
2021/01/31 00:30:04;;;;;;;;;;;3.40;96.40;;;;;;4335839;33;20014;-74
2021/01/31 00:32:36;;;;;;;;;;;3.40;96.10;;;;;;4349051;33;20036;-74
2021/01/31 00:35:09;;;;;;;;;;;3.50;96.10;;;;;;4349261;32;20009;-74
2021/01/31 00:37:41;;;;;;;;;;;3.40;96.10;;;;;;4349317;33;20013;-74
2021/01/31 00:40:17;;;;;;;;;;;3.40;96.00;;;;;;4347864;33;20016;-74
2021/01/31 00:42:54;;;;;;;;;;;3.40;96.10;;;;;;4348692;33;23401;-74
2021/01/31 00:45:28;;;;;;;;;;;3.50;96.10;;;;;;4347198;33;25142;-74
2021/01/31 00:47:55;;;;;;;;;;;3.40;96.00;;;;;;4348525;33;20243;-74
2021/01/31 00:50:28;;;;;;;;;;;3.40;95.90;;;;;;4348748;33;20017;-75
2021/01/31 00:53:01;;;;;;;;;;;3.40;96.00;;;;;;4348759;32;20056;-74
2021/01/31 00:55:30;;;;;;;;;;;3.40;96.00;;;;;;4334983;33;20099;-74
2021/01/31 00:58:00;;;;;;;;;;;3.40;96.00;;;;;;4347248;33;20112;-74
2021/01/31 01:00:38;;;;;;;;;;;3.40;96.10;;;;;;4348920;33;20516;-74
2021/01/31 01:03:10;;;;;;;;;;;3.40;96.00;;;;;;4334364;33;33302;-74
2021/01/31 01:05:43;;;;;;;;;;;3.40;96.00;;;;;;4334297;33;40346;-75
2021/01/31 01:08:12;;;;;;;;;;;3.40;96.10;;;;;;4346801;33;28757;-74
2021/01/31 01:10:46;;;;;;;;;;;3.40;96.00;;;;;;4347823;32;29363;-75
2021/01/31 01:13:19;;;;;;;;;;;3.40;96.00;;;;;;4346813;33;26992;-75
2021/01/31 01:15:49;;;;;;;;;;;3.40;96.10;;;;;;4346543;33;33668;-75
2021/01/31 01:18:21;;;;;;;;;;;3.40;96.00;;;;;;4347630;33;20006;-75
2021/01/31 01:20:51;;;;;;;;;;;3.30;95.70;;;;;;4347367;33;20064;-74
2021/01/31 01:23:23;;;;;;;;;;;3.30;95.80;;;;;;4347773;33;20104;-75
2021/01/31 01:25:53;;;;;;;;;;;3.30;95.80;;;;;;4347248;33;19994;-74
2021/01/31 01:28:25;;;;;;;;;;;3.30;95.90;;;;;;4347283;33;20057;-75
2021/01/31 01:30:57;;;;;;;;;;;3.30;95.90;;;;;;4347208;33;33726;-74
2021/01/31 01:33:33;;;;;;;;;;;3.30;95.80;;;;;;4347869;33;20061;-74
2021/01/31 01:36:08;;;;;;;;;;;3.30;96.00;;;;;;4347015;33;20048;-74
2021/01/31 01:38:42;;;;;;;;;;;3.30;95.90;;;;;;4347852;32;20012;-74
2021/01/31 01:41:14;;;;;;;;;;;3.30;95.90;;;;;;4346196;33;32684;-74
2021/01/31 01:43:46;;;;;;;;;;;3.30;95.80;;;;;;4348013;33;20009;-74
2021/01/31 01:46:16;;;;;;;;;;;3.20;95.90;;;;;;4348316;32;20002;-74
2021/01/31 01:48:57;;;;;;;;;;;3.30;95.90;;;;;;4346819;33;20040;-74
2021/01/31 01:51:46;;;;;;;;;;;3.30;95.90;;;;;;4347032;33;20009;-74
2021/01/31 01:54:16;;;;;;;;;;;3.30;96.00;;;;;;4347204;33;33226;-74
2021/01/31 01:56:46;;;;;;;;;;;3.30;96.00;;;;;;4346172;33;22983;-74
2021/01/31 01:59:18;;;;;;;;;;;3.30;95.90;;;;;;4347445;33;20009;-74
2021/01/31 02:01:56;;;;;;;;;;;3.30;95.90;;;;;;4346556;33;20021;-75
2021/01/31 02:04:28;;;;;;;;;;;3.20;95.90;;;;;;4346090;33;20021;-74
2021/01/31 02:07:07;;;;;;;;;;;3.20;95.90;;;;;;4346695;33;20482;-74
2021/01/31 02:09:41;;;;;;;;;;;3.30;95.90;;;;;;4346531;33;20061;-74
2021/01/31 02:12:15;;;;;;;;;;;3.20;95.90;;;;;;4346173;33;23006;-74
2021/01/31 02:14:45;;;;;;;;;;;3.20;95.80;;;;;;4345893;33;20017;-74
2021/01/31 02:17:24;;;;;;;;;;;3.20;95.90;;;;;;4346608;33;20023;-74
2021/01/31 02:20:09;;;;;;;;;;;3.20;95.90;;;;;;4347750;32;20029;-74
2021/01/31 02:22:45;;;;;;;;;;;3.20;95.90;;;;;;4345807;33;32125;-74
2021/01/31 02:25:34;;;;;;;;;;;3.20;95.90;;;;;;4346896;33;20042;-74
2021/01/31 02:28:18;;;;;;;;;;;3.20;95.90;;;;;;4346512;33;20057;-74
2021/01/31 02:31:08;;;;;;;;;;;3.20;96.20;;;;;;4346476;33;20346;-74
2021/01/31 02:33:47;;;;;;;;;;;3.20;95.80;;;;;;4346322;33;20029;-74
2021/01/31 02:36:25;;;;;;;;;;;3.20;95.80;;;;;;4346283;33;20073;-74
2021/01/31 02:39:01;;;;;;;;;;;3.20;95.90;;;;;;4346211;33;20428;-74
2021/01/31 02:41:34;;;;;;;;;;;3.20;95.90;;;;;;4347347;33;20080;-74
2021/01/31 02:44:10;;;;;;;;;;;3.20;95.80;;;;;;4346390;33;20065;-74
2021/01/31 02:47:00;;;;;;;;;;;3.20;95.80;;;;;;4345885;33;19997;-74
2021/01/31 02:49:41;;;;;;;;;;;3.20;95.80;;;;;;4347368;33;20048;-74
2021/01/31 02:52:16;;;;;;;;;;;3.20;95.80;;;;;;4333861;33;20124;-75
2021/01/31 02:55:05;;;;;;;;;;;3.20;95.90;;;;;;4334171;33;20005;-74
2021/01/31 02:57:41;;;;;;;;;;;3.20;95.90;;;;;;4346217;33;20060;-74
2021/01/31 03:00:19;;;;;;;;;;;3.10;95.70;;;;;;4347184;33;20127;-75
2021/01/31 03:02:55;;;;;;;;;;;3.20;95.80;;;;;;4333645;33;20027;-74
2021/01/31 03:05:32;;;;;;;;;;;3.10;95.70;;;;;;4346450;33;20065;-74
2021/01/31 03:08:13;;;;;;;;;;;3.10;95.80;;;;;;4333681;33;20017;-74
2021/01/31 03:10:49;;;;;;;;;;;3.20;95.80;;;;;;4333797;33;20037;-74
2021/01/31 03:13:28;;;;;;;;;;;3.10;95.70;;;;;;4344716;33;27988;-74
2021/01/31 03:16:05;;;;;;;;;;;3.10;95.80;;;;;;4345535;33;20092;-74
2021/01/31 03:19:00;;;;;;;;;;;3.10;95.80;;;;;;4332994;33;28887;-74
2021/01/31 03:21:33;;;;;;;;;;;3.10;95.70;;;;;;4344908;33;31801;-75
2021/01/31 03:24:07;;;;;;;;;;;3.10;95.70;;;;;;4345407;33;19997;-75
2021/01/31 03:26:34;;;;;;;;;;;3.10;95.70;;;;;;4333475;33;19990;-74
2021/01/31 03:29:03;;;;;;;;;;;3.00;95.70;;;;;;4345963;32;30875;-74
2021/01/31 03:31:36;;;;;;;;;;;3.00;95.60;;;;;;4345166;33;20001;-74
2021/01/31 03:34:10;;;;;;;;;;;3.00;95.70;;;;;;4345645;33;39047;-74
2021/01/31 03:36:42;;;;;;;;;;;3.00;95.70;;;;;;4345179;33;19997;-74
2021/01/31 03:39:13;;;;;;;;;;;3.00;95.80;;;;;;4345394;33;19996;-74
2021/01/31 03:41:46;;;;;;;;;;;3.00;95.70;;;;;;4346739;33;20049;-74
2021/01/31 03:44:21;;;;;;;;;;;3.00;95.60;;;;;;4346475;33;20004;-75
2021/01/31 03:47:02;;;;;;;;;;;3.00;95.70;;;;;;4344324;33;36155;-74
2021/01/31 03:49:44;;;;;;;;;;;3.00;95.80;;;;;;4345472;33;20084;-74
2021/01/31 03:52:14;;;;;;;;;;;3.00;95.80;;;;;;4344712;33;24981;-74
2021/01/31 03:54:46;;;;;;;;;;;3.00;95.80;;;;;;4345797;33;20001;-75
2021/01/31 03:57:24;;;;;;;;;;;3.00;95.70;;;;;;4345219;33;20435;-74
2021/01/31 04:00:06;;;;;;;;;;;3.00;95.70;;;;;;4346720;33;20411;-74
2021/01/31 04:02:40;;;;;;;;;;;3.00;95.70;;;;;;4333059;33;20060;-74
2021/01/31 04:05:16;;;;;;;;;;;3.00;95.70;;;;;;4346575;33;20057;-75
2021/01/31 04:07:50;;;;;;;;;;;3.00;95.70;;;;;;4345754;33;20061;-74
2021/01/31 04:10:22;;;;;;;;;;;3.00;95.70;;;;;;4345849;33;20386;-74
2021/01/31 04:12:57;;;;;;;;;;;3.00;95.70;;;;;;4344349;33;31024;-74
2021/01/31 04:15:39;;;;;;;;;;;3.00;95.70;;;;;;4345276;33;20437;-74
2021/01/31 04:18:13;;;;;;;;;;;3.00;95.70;;;;;;4345044;33;20336;-74
2021/01/31 04:20:44;;;;;;;;;;;2.90;95.60;;;;;;4345281;33;19997;-74
2021/01/31 04:23:19;;;;;;;;;;;2.90;95.60;;;;;;4344979;33;20001;-74
2021/01/31 04:25:50;;;;;;;;;;;2.90;95.60;;;;;;4345378;33;19997;-74
2021/01/31 04:28:23;;;;;;;;;;;2.90;95.60;;;;;;4346477;33;20051;-74
2021/01/31 04:30:58;;;;;;;;;;;2.90;95.60;;;;;;4345540;33;24799;-74
2021/01/31 04:33:28;;;;;;;;;;;2.90;95.60;;;;;;4345240;33;20045;-74
2021/01/31 04:36:00;;;;;;;;;;;2.90;95.60;;;;;;4346176;33;20023;-74
2021/01/31 04:38:33;;;;;;;;;;;2.90;95.70;;;;;;4345426;33;20017;-74
2021/01/31 04:41:03;;;;;;;;;;;2.90;95.60;;;;;;4346225;33;20028;-74
2021/01/31 04:43:32;;;;;;;;;;;2.90;95.60;;;;;;4345830;33;20019;-74
2021/01/31 04:46:08;;;;;;;;;;;2.90;95.60;;;;;;4346106;33;20064;-74
2021/01/31 04:49:01;;;;;;;;;;;2.90;95.60;;;;;;4346199;33;20023;-74
2021/01/31 04:51:33;;;;;;;;;;;2.80;95.70;;;;;;4338538;33;40629;-74
2021/01/31 04:54:09;;;;;;;;;;;2.90;95.60;;;;;;4345177;33;20099;-74
2021/01/31 04:57:11;;;;;;;;;;;2.90;95.60;;;;;;4345340;33;20061;-74
2021/01/31 04:59:51;;;;;;;;;;;2.80;95.60;;;;;;4345486;33;20061;-74
2021/01/31 05:02:32;;;;;;;;;;;2.80;95.60;;;;;;4346569;33;30281;-74
2021/01/31 05:05:03;;;;;;;;;;;2.80;95.60;;;;;;4349092;32;20127;-74
2021/01/31 05:07:41;;;;;;;;;;;2.80;95.50;;;;;;4335306;33;20003;-74
2021/01/31 05:10:11;;;;;;;;;;;2.80;95.60;;;;;;4347464;33;20021;-74
2021/01/31 05:12:47;;;;;;;;;;;2.80;95.50;;;;;;4347704;33;20009;-74
2021/01/31 05:15:24;;;;;;;;;;;2.80;95.60;;;;;;4347352;33;20032;-74
2021/01/31 05:18:01;;;;;;;;;;;2.80;95.50;;;;;;4347716;33;20391;-74
2021/01/31 05:20:36;;;;;;;;;;;2.80;95.60;;;;;;4346158;33;45199;-74
2021/01/31 05:23:05;;;;;;;;;;;2.80;95.50;;;;;;4346422;33;40192;-74
2021/01/31 05:25:37;;;;;;;;;;;2.80;95.50;;;;;;4347119;32;20002;-74
2021/01/31 05:28:14;;;;;;;;;;;2.80;95.60;;;;;;4348285;32;20053;-74
2021/01/31 05:30:44;;;;;;;;;;;2.80;95.60;;;;;;4334042;33;33270;-74
2021/01/31 05:33:18;;;;;;;;;;;2.80;95.50;;;;;;4347920;33;20053;-74
2021/01/31 05:35:54;;;;;;;;;;;2.80;95.60;;;;;;4335072;33;20021;-74
2021/01/31 05:38:38;;;;;;;;;;;2.80;95.60;;;;;;4347896;32;20021;-74
2021/01/31 05:41:23;;;;;;;;;;;2.80;95.70;;;;;;4348568;33;20009;-74
2021/01/31 05:44:00;;;;;;;;;;;2.80;95.60;;;;;;4347335;33;20027;-74
2021/01/31 05:46:50;;;;;;;;;;;2.80;95.50;;;;;;4348291;33;20032;-74
2021/01/31 05:49:34;;;;;;;;;;;2.70;95.60;;;;;;4348396;32;20021;-74
2021/01/31 05:52:08;;;;;;;;;;;2.80;95.60;;;;;;4346738;33;20023;-74
2021/01/31 05:54:40;;;;;;;;;;;2.70;95.60;;;;;;4347282;33;20463;-74
2021/01/31 05:57:30;;;;;;;;;;;2.70;95.40;;;;;;4346574;33;20009;-74
2021/01/31 06:00:16;;;;;;;;;;;2.70;95.60;;;;;;4347907;33;19997;-74
2021/01/31 06:02:59;;;;;;;;;;;2.70;95.50;;;;;;4346165;33;20026;-74
2021/01/31 06:05:37;;;;;;;;;;;2.70;95.40;;;;;;4346731;33;20059;-74
2021/01/31 06:08:11;;;;;;;;;;;2.70;95.60;;;;;;4346658;33;20033;-74
2021/01/31 06:10:59;;;;;;;;;;;2.70;95.50;;;;;;4346749;33;20013;-74
2021/01/31 06:13:34;;;;;;;;;;;2.70;95.50;;;;;;4346658;33;20005;-74
2021/01/31 06:16:08;;;;;;;;;;;2.70;95.60;;;;;;4347997;32;20394;-74
2021/01/31 06:18:58;;;;;;;;;;;2.70;95.50;;;;;;4347849;33;20056;-74
2021/01/31 06:21:38;;;;;;;;;;;2.70;95.60;;;;;;4334093;33;20393;-74
2021/01/31 06:24:27;;;;;;;;;;;2.70;95.50;;;;;;4345980;33;20008;-74
2021/01/31 06:27:03;;;;;;;;;;;2.70;95.50;;;;;;4347655;32;20056;-74
2021/01/31 06:29:48;;;;;;;;;;;2.70;95.50;;;;;;4346526;33;20013;-74
2021/01/31 06:32:15;;;;;;;;;;;2.70;95.60;;;;;;4333036;33;32534;-74
2021/01/31 06:34:47;;;;;;;;;;;2.70;95.50;;;;;;4347065;33;20057;-74
2021/01/31 06:37:20;;;;;;;;;;;2.60;95.50;;;;;;4334242;33;20009;-74
2021/01/31 06:40:01;;;;;;;;;;;2.60;95.40;;;;;;4346761;33;20912;-74
2021/01/31 06:42:57;;;;;;;;;;;2.60;95.40;;;;;;4346128;33;20442;-74
2021/01/31 06:45:27;;;;;;;;;;;2.60;95.50;;;;;;4339867;33;20398;-74
2021/01/31 06:48:12;;;;;;;;;;;2.60;95.50;;;;;;4346134;33;20020;-74
2021/01/31 06:50:48;;;;;;;;;;;2.60;95.50;;;;;;4346357;33;20020;-74
2021/01/31 06:53:33;;;;;;;;;;;2.60;95.50;;;;;;4347190;33;20012;-74
2021/01/31 06:56:13;;;;;;;;;;;2.60;95.50;;;;;;4333673;33;20050;-74
2021/01/31 06:58:52;;;;;;;;;;;2.60;95.50;;;;;;4345904;33;20017;-74
2021/01/31 07:01:22;;;;;;;;;;;2.60;95.50;;;;;;4345823;33;20032;-74
2021/01/31 07:04:01;;;;;;;;;;;2.60;95.50;;;;;;4346142;33;20108;-74
2021/01/31 07:06:52;;;;;;;;;;;2.60;95.70;;;;;;4346310;33;20402;-74
2021/01/31 07:09:35;;;;;;;;;;;2.60;95.50;;;;;;4345844;33;20060;-74
2021/01/31 07:12:14;;;;;;;;;;;2.60;95.50;;;;;;4333712;33;20048;-74
2021/01/31 07:14:50;;;;;;;;;;;2.60;95.50;;;;;;4345059;33;36069;-74
2021/01/31 07:17:36;;;;;;;;;;;2.60;95.50;;;;;;4347082;32;20436;-74
2021/01/31 07:20:11;;;;;;;;;;;2.60;95.50;;;;;;4346611;33;20407;-74
2021/01/31 07:22:41;;;;;;;;;;;2.60;95.60;;;;;;4345552;33;42708;-74
2021/01/31 07:25:18;;;;;;;;;;;2.60;95.50;;;;;;4345807;33;20367;-74
2021/01/31 07:27:52;;;;;;;;;;;2.60;95.50;;;;;;4345694;33;20008;-74
2021/01/31 07:30:28;;;;;;;;;;;2.60;95.50;;;;;;4346824;32;20053;-74
2021/01/31 07:33:18;;;;;;;;;;;2.60;95.50;;;;;;4345921;33;20016;-74
2021/01/31 07:35:44;;;;;;;;;;;2.60;95.50;;;;;;4344651;33;37526;-74
2021/01/31 07:38:26;;;;;;;;;;;2.60;95.50;;;;;;4346314;33;20012;-74
2021/01/31 07:41:01;;;;;;;;;;;2.60;95.50;;;;;;4332962;33;20041;-74
2021/01/31 07:43:35;;;;;;;;;;;2.60;95.60;;;;;;4345624;33;20057;-74
2021/01/31 07:46:10;;;;;;;;;;;2.60;95.50;;;;;;4346687;33;20057;-74
2021/01/31 07:49:07;;;;;;;;;;;2.60;95.60;;;;;;4345743;33;20002;-74
2021/01/31 07:51:40;;;;;;;;;;;2.60;95.50;;;;;;4345662;33;20029;-74
2021/01/31 07:54:23;;;;;;;;;;;2.60;95.50;;;;;;4346693;33;20005;-74
2021/01/31 07:56:56;;;;;;;;;;;2.60;95.50;;;;;;4345585;33;20304;-74
2021/01/31 07:59:37;;;;;;;;;;;2.60;95.50;;;;;;4346598;33;20021;-74
2021/01/31 08:02:29;;;;;;;;;;;2.60;95.50;;;;;;4345515;33;20005;-74
2021/01/31 08:05:04;;;;;;;;;;;2.60;95.50;;;;;;4346801;33;20023;-74
2021/01/31 08:07:52;;;;;;;;;;;2.60;95.50;;;;;;4346682;33;20068;-74
2021/01/31 08:10:39;;;;;;;;;;;2.60;95.50;;;;;;4345826;33;20448;-74
2021/01/31 08:13:26;;;;;;;;;;;2.60;95.50;;;;;;4346308;33;20016;-74
2021/01/31 08:15:55;;;;;;;;;;;2.60;95.50;;;;;;4345306;32;37572;-74
2021/01/31 08:18:24;;;;;;;;;;;2.60;95.50;;;;;;4345289;33;41044;-74
2021/01/31 08:20:54;;;;;;;;;;;2.60;95.60;;;;;;4344097;33;35435;-74
2021/01/31 08:23:30;;;;;;;;;;;2.60;95.50;;;;;;4346237;32;20036;-74
2021/01/31 08:26:07;;;;;;;;;;;2.60;95.50;;;;;;4345090;33;20402;-74
2021/01/31 08:28:53;;;;;;;;;;;2.60;95.50;;;;;;4344374;33;36694;-74
2021/01/31 08:31:20;;;;;;;;;;;2.60;95.50;;;;;;4345499;33;39977;-74
2021/01/31 08:34:02;;;;;;;;;;;2.60;95.50;;;;;;4347821;33;20075;-74
2021/01/31 08:36:35;;;;;;;;;;;2.60;95.50;;;;;;4348098;33;20083;-74
2021/01/31 08:39:22;;;;;;;;;;;2.60;95.50;;;;;;4335869;33;19997;-74
2021/01/31 08:42:03;;;;;;;;;;;2.60;95.50;;;;;;4349156;32;20124;-74
2021/01/31 08:44:45;;;;;;;;;;;2.60;95.50;;;;;;4348108;33;20358;-74
2021/01/31 08:47:20;;;;;;;;;;;2.60;95.50;;;;;;4347879;33;20080;-74
2021/01/31 08:49:57;;;;;;;;;;;2.60;95.50;;;;;;4349491;33;20068;-74
2021/01/31 08:52:30;;;;;;;;;;;2.60;95.50;;;;;;4335476;33;19994;-74
2021/01/31 08:55:00;;;;;;;;;;;2.60;95.50;;;;;;4347679;33;20019;-74
2021/01/31 08:57:37;;;;;;;;;;;2.60;95.50;;;;;;4347730;33;20009;-74
2021/01/31 09:00:12;;;;;;;;;;;2.70;95.60;;;;;;4346971;33;30096;-74
2021/01/31 09:02:41;;;;;;;;;;;2.70;95.50;;;;;;4347552;32;38337;-74
2021/01/31 09:05:18;;;;;;;;;;;2.70;95.60;;;;;;4335218;33;20031;-74
2021/01/31 09:07:49;;;;;;;;;;;2.70;95.50;;;;;;4346661;33;38274;-74
2021/01/31 09:10:33;;;;;;;;;;;2.70;95.50;;;;;;4348695;33;20044;-74
2021/01/31 09:13:16;;;;;;;;;;;2.70;95.50;;;;;;4347657;33;20076;-74
2021/01/31 09:15:45;;;;;;;;;;;2.70;95.60;;;;;;4347873;33;28097;-74
2021/01/31 09:18:19;;;;;;;;;;;2.70;95.90;;;;;;4347503;32;33224;-74
2021/01/31 09:20:55;;;;;;;;;;;2.70;95.50;;;;;;4347766;33;20064;-74
2021/01/31 09:23:33;;;;;;;;;;;2.70;95.50;;;;;;4347019;33;19994;-74
2021/01/31 09:26:07;;;;;;;;;;;2.70;95.50;;;;;;4347418;33;20069;-74
2021/01/31 09:28:39;;;;;;;;;;;2.70;95.50;;;;;;4347561;33;20017;-74
2021/01/31 09:31:14;;;;;;;;;;;2.80;95.60;;;;;;4348309;32;20017;-74
2021/01/31 09:33:44;;;;;;;;;;;2.70;95.50;;;;;;4347161;33;20195;-74
2021/01/31 09:36:22;;;;;;;;;;;2.70;95.50;;;;;;4347342;33;20017;-74
2021/01/31 09:38:53;;;;;;;;;;;2.70;95.50;;;;;;4347650;32;20991;-74
2021/01/31 09:41:28;;;;;;;;;;;2.70;95.50;;;;;;4348288;33;20056;-74
2021/01/31 09:44:06;;;;;;;;;;;2.70;95.50;;;;;;4345534;33;42229;-74
2021/01/31 09:46:37;;;;;;;;;;;2.70;95.50;;;;;;4347890;33;20013;-74
2021/01/31 09:49:11;;;;;;;;;;;2.70;95.50;;;;;;4346059;33;36483;-74
2021/01/31 09:51:51;;;;;;;;;;;2.70;95.50;;;;;;4334874;33;19997;-74
2021/01/31 09:54:22;;;;;;;;;;;2.70;95.40;;;;;;4346446;33;21955;-75
2021/01/31 09:56:58;;;;;;;;;;;2.70;95.50;;;;;;4347166;33;20080;-74
2021/01/31 09:59:32;;;;;;;;;;;2.70;95.50;;;;;;4334755;33;20036;-74
2021/01/31 10:02:12;;;;;;;;;;;2.70;95.50;;;;;;4334059;33;20013;-74
2021/01/31 10:04:46;;;;;;;;;;;2.70;95.60;;;;;;4346799;33;20087;-74
2021/01/31 10:07:36;;;;;;;;;;;2.70;95.50;;;;;;4346868;33;20024;-75
2021/01/31 10:10:22;;;;;;;;;;;2.70;95.50;;;;;;4344713;33;20003;-75
2021/01/31 10:13:11;;;;;;;;;;;2.70;95.60;;;;;;4346747;33;39522;-74
2021/01/31 10:15:51;;;;;;;;;;;2.80;95.60;;;;;;4346744;33;20049;-75
2021/01/31 10:18:44;;;;;;;;;;;2.80;95.50;;;;;;4346806;33;20009;-75
2021/01/31 10:21:31;;;;;;;;;;;2.80;95.50;;;;;;4344704;33;37083;-74
2021/01/31 10:24:08;;;;;;;;;;;2.80;95.50;;;;;;4346278;33;20001;-74
2021/01/31 10:26:40;;;;;;;;;;;2.80;95.50;;;;;;4347982;33;20044;-74
2021/01/31 10:29:21;;;;;;;;;;;2.80;95.50;;;;;;4346622;33;20017;-74
2021/01/31 10:31:56;;;;;;;;;;;2.80;95.50;;;;;;4346537;33;20017;-74
2021/01/31 10:34:54;;;;;;;;;;;2.80;95.60;;;;;;4346945;33;20086;-75
2021/01/31 10:37:36;;;;;;;;;;;2.80;95.60;;;;;;4347249;32;20001;-74
2021/01/31 10:40:10;;;;;;;;;;;2.80;95.60;;;;;;4333483;33;20028;-74
2021/01/31 10:42:42;;;;;;;;;;;2.80;95.60;;;;;;4344895;33;44485;-74
2021/01/31 10:45:16;;;;;;;;;;;2.80;95.60;;;;;;4346826;33;25462;-74
2021/01/31 10:47:49;;;;;;;;;;;2.80;95.90;;;;;;4346730;33;22822;-74
2021/01/31 10:50:20;;;;;;;;;;;2.80;95.50;;;;;;4346287;33;20060;-74
2021/01/31 10:52:57;;;;;;;;;;;2.80;95.60;;;;;;4345750;33;19990;-74
2021/01/31 10:55:30;;;;;;;;;;;2.80;95.50;;;;;;4345108;33;20007;-74
2021/01/31 10:58:00;;;;;;;;;;;2.80;95.50;;;;;;4346218;33;20057;-74
2021/01/31 11:00:35;;;;;;;;;;;2.80;95.50;;;;;;4332736;33;30721;-74
2021/01/31 11:03:05;;;;;;;;;;;2.80;95.60;;;;;;4345423;33;20020;-74
2021/01/31 11:05:34;;;;;;;;;;;2.90;95.60;;;;;;4345900;33;20001;-74
2021/01/31 11:08:07;;;;;;;;;;;2.90;95.60;;;;;;4346266;33;20065;-74
2021/01/31 11:10:39;;;;;;;;;;;2.90;95.60;;;;;;4346030;33;19997;-74
2021/01/31 11:13:14;;;;;;;;;;;2.90;95.60;;;;;;4347083;32;20392;-74
2021/01/31 11:15:46;;;;;;;;;;;2.90;95.90;;;;;;4345116;33;24519;-74
2021/01/31 11:18:13;;;;;;;;;;;2.90;95.60;;;;;;4345443;33;20090;-74
2021/01/31 11:20:45;;;;;;;;;;;2.90;95.60;;;;;;4346436;33;20478;-74
2021/01/31 11:23:15;;;;;;;;;;;2.90;95.50;;;;;;4332938;33;22819;-74
2021/01/31 11:25:48;;;;;;;;;;;2.90;95.50;;;;;;4345755;33;20001;-74
2021/01/31 11:28:18;;;;;;;;;;;3.00;95.60;;;;;;4345370;33;36544;-74
2021/01/31 11:30:47;;;;;;;;;;;3.00;95.60;;;;;;4345667;33;27109;-74
2021/01/31 11:33:20;;;;;;;;;;;3.00;95.60;;;;;;4345668;33;20014;-74
2021/01/31 11:35:49;;;;;;;;;;;3.00;95.60;;;;;;4345769;32;43804;-74
2021/01/31 11:38:19;;;;;;;;;;;3.00;95.60;;;;;;4332969;33;20032;-74
2021/01/31 11:40:53;;;;;;;;;;;3.00;95.60;;;;;;4346816;33;20009;-74
2021/01/31 11:43:28;;;;;;;;;;;3.00;95.50;;;;;;4345935;33;20057;-74
2021/01/31 11:45:55;;;;;;;;;;;3.00;95.50;;;;;;4345565;33;19993;-74
2021/01/31 11:48:28;;;;;;;;;;;3.00;95.50;;;;;;4345402;33;20065;-74
2021/01/31 11:50:55;;;;;;;;;;;3.10;95.50;;;;;;4346481;33;20023;-74
2021/01/31 11:53:26;;;;;;;;;;;3.00;95.50;;;;;;4346232;33;20023;-74
2021/01/31 11:55:59;;;;;;;;;;;3.10;95.50;;;;;;4346718;33;20304;-74
2021/01/31 11:58:34;;;;;;;;;;;3.10;95.50;;;;;;4345504;33;20005;-74
2021/01/31 12:01:07;;;;;;;;;;;3.10;95.60;;;;;;4332916;33;20020;-74
2021/01/31 12:03:39;;;;;;;;;;;3.10;95.50;;;;;;4331669;33;20014;-74
2021/01/31 12:06:12;;;;;;;;;;;3.10;95.50;;;;;;4330877;33;20043;-75
2021/01/31 12:08:44;;;;;;;;;;;3.10;95.50;;;;;;4334328;33;20039;-74
2021/01/31 12:11:14;;;;;;;;;;;3.20;95.50;;;;;;4333092;33;23725;-75
2021/01/31 12:13:46;;;;;;;;;;;3.10;95.50;;;;;;4334685;33;20014;-74
2021/01/31 12:16:19;;;;;;;;;;;3.10;95.50;;;;;;4333768;33;35834;-74
2021/01/31 12:18:51;;;;;;;;;;;3.20;95.50;;;;;;4333987;33;25890;-75
2021/01/31 12:21:27;;;;;;;;;;;3.10;95.50;;;;;;4332457;33;41092;-74
2021/01/31 12:23:56;;;;;;;;;;;3.20;95.50;;;;;;4334096;33;20017;-75
2021/01/31 12:26:28;;;;;;;;;;;3.20;95.50;;;;;;4333444;33;20433;-74
2021/01/31 12:28:58;;;;;;;;;;;3.20;95.50;;;;;;4333480;33;20014;-75
2021/01/31 12:31:33;;;;;;;;;;;3.20;95.50;;;;;;4334374;33;20379;-75
2021/01/31 12:34:06;;;;;;;;;;;3.20;95.50;;;;;;4334690;33;20084;-75
2021/01/31 12:36:41;;;;;;;;;;;3.20;95.50;;;;;;4333683;33;35010;-75
2021/01/31 12:39:08;;;;;;;;;;;3.20;95.50;;;;;;4320431;33;27697;-74
2021/01/31 12:41:46;;;;;;;;;;;3.20;95.50;;;;;;4334319;33;20065;-74
2021/01/31 12:44:16;;;;;;;;;;;3.20;95.50;;;;;;4332644;33;32969;-75
2021/01/31 12:46:48;;;;;;;;;;;3.20;95.50;;;;;;4334228;33;20005;-75
2021/01/31 12:49:22;;;;;;;;;;;3.20;95.50;;;;;;4332806;33;20001;-74
2021/01/31 12:51:52;;;;;;;;;;;3.20;95.50;;;;;;4333125;33;20023;-74
2021/01/31 12:54:23;;;;;;;;;;;3.20;95.50;;;;;;4333549;33;21704;-74
2021/01/31 12:56:59;;;;;;;;;;;3.20;95.50;;;;;;4332400;33;33587;-74
2021/01/31 12:59:28;;;;;;;;;;;3.20;95.50;;;;;;4333527;33;28126;-74
2021/01/31 13:02:02;;;;;;;;;;;3.20;95.60;;;;;;4338662;33;20053;-74
2021/01/31 13:04:32;;;;;;;;;;;3.20;95.60;;;;;;4347623;33;20002;-76
2021/01/31 13:07:02;;;;;;;;;;;3.30;95.70;;;;;;4347948;33;20394;-75
2021/01/31 13:09:31;;;;;;;;;;;3.30;95.60;;;;;;4347260;33;20057;-74
2021/01/31 13:12:09;;;;;;;;;;;3.30;95.60;;;;;;4348605;33;20013;-74
2021/01/31 13:14:39;;;;;;;;;;;3.30;95.60;;;;;;4346651;33;35295;-74
2021/01/31 13:17:09;;;;;;;;;;;3.30;95.60;;;;;;4346712;33;28281;-74
2021/01/31 13:19:38;;;;;;;;;;;3.30;95.60;;;;;;4346702;32;33732;-74
2021/01/31 13:22:14;;;;;;;;;;;3.30;95.60;;;;;;4348197;33;20055;-74
2021/01/31 13:24:43;;;;;;;;;;;3.30;95.60;;;;;;4346582;33;26497;-74
2021/01/31 13:27:16;;;;;;;;;;;3.30;95.60;;;;;;4348417;33;20082;-74
2021/01/31 13:29:45;;;;;;;;;;;3.30;95.60;;;;;;4347435;33;36823;-75
2021/01/31 13:32:20;;;;;;;;;;;3.30;95.60;;;;;;4347143;32;32528;-75
2021/01/31 13:34:50;;;;;;;;;;;3.30;95.70;;;;;;4334247;33;20052;-74
2021/01/31 13:37:20;;;;;;;;;;;3.30;95.70;;;;;;4346869;33;20363;-74
2021/01/31 13:39:52;;;;;;;;;;;3.30;95.60;;;;;;4347756;33;20005;-74
2021/01/31 13:42:21;;;;;;;;;;;3.30;95.60;;;;;;4346417;33;23267;-74
2021/01/31 13:44:54;;;;;;;;;;;3.30;95.60;;;;;;4347281;32;36253;-74
2021/01/31 13:47:25;;;;;;;;;;;3.30;95.60;;;;;;4347060;33;20468;-74
2021/01/31 13:49:58;;;;;;;;;;;3.30;95.60;;;;;;4346918;33;20323;-74
2021/01/31 13:52:30;;;;;;;;;;;3.40;95.60;;;;;;4346589;33;20004;-74
2021/01/31 13:55:02;;;;;;;;;;;3.30;95.60;;;;;;4345660;33;40751;-75
2021/01/31 13:57:29;;;;;;;;;;;3.40;95.70;;;;;;4346577;33;20020;-74
2021/01/31 14:00:01;;;;;;;;;;;3.40;95.70;;;;;;4347066;33;20005;-74
2021/01/31 14:02:34;;;;;;;;;;;3.40;95.70;;;;;;4347666;33;20044;-74
2021/01/31 14:05:04;;;;;;;;;;;3.40;95.70;;;;;;4346259;33;23432;-74
2021/01/31 14:07:40;;;;;;;;;;;3.40;95.70;;;;;;4347969;33;20065;-74
2021/01/31 14:10:11;;;;;;;;;;;3.40;95.70;;;;;;4345698;33;33235;-74
2021/01/31 14:12:47;;;;;;;;;;;3.40;95.70;;;;;;4345977;33;26234;-74
2021/01/31 14:15:14;;;;;;;;;;;3.40;95.70;;;;;;4345555;33;40642;-74
2021/01/31 14:17:46;;;;;;;;;;;3.40;95.70;;;;;;4333770;33;24722;-75
2021/01/31 14:20:17;;;;;;;;;;;3.40;95.70;;;;;;4346657;33;20025;-75
2021/01/31 14:22:52;;;;;;;;;;;3.40;95.70;;;;;;4347268;33;20021;-74
2021/01/31 14:25:24;;;;;;;;;;;3.40;95.70;;;;;;4346341;33;20437;-75
2021/01/31 14:27:54;;;;;;;;;;;3.40;95.70;;;;;;4346575;33;20071;-74
2021/01/31 14:30:26;;;;;;;;;;;3.40;95.70;;;;;;4346210;33;20063;-75
2021/01/31 14:32:57;;;;;;;;;;;3.50;95.70;;;;;;4345367;33;34066;-74
2021/01/31 14:35:30;;;;;;;;;;;3.40;95.70;;;;;;4345932;32;39234;-75
2021/01/31 14:38:04;;;;;;;;;;;3.50;95.70;;;;;;4334241;33;20072;-75
2021/01/31 14:40:39;;;;;;;;;;;3.40;95.70;;;;;;4347566;32;20108;-75
2021/01/31 14:43:07;;;;;;;;;;;3.40;95.70;;;;;;4346411;33;35086;-75
2021/01/31 14:45:37;;;;;;;;;;;3.50;95.70;;;;;;4347269;33;20047;-74
2021/01/31 14:48:07;;;;;;;;;;;3.50;95.80;;;;;;4346798;32;20080;-75
2021/01/31 14:50:36;;;;;;;;;;;3.50;95.70;;;;;;4347152;33;20061;-75
2021/01/31 14:53:11;;;;;;;;;;;3.50;95.70;;;;;;4345940;33;20040;-75
2021/01/31 14:55:42;;;;;;;;;;;3.50;95.70;;;;;;4344698;33;43907;-74
2021/01/31 14:58:14;;;;;;;;;;;3.50;95.70;;;;;;4346764;32;20016;-74
2021/01/31 15:00:43;;;;;;;;;;;3.50;95.80;;;;;;4345995;33;20084;-75
2021/01/31 15:03:16;;;;;;;;;;;3.50;95.80;;;;;;4332403;33;38487;-74
2021/01/31 15:05:46;;;;;;;;;;;3.50;95.80;;;;;;4345435;33;19997;-74
2021/01/31 15:08:15;;;;;;;;;;;3.50;95.80;;;;;;4345936;33;20005;-74
2021/01/31 15:10:46;;;;;;;;;;;3.50;95.80;;;;;;4346140;33;19994;-74
2021/01/31 15:13:21;;;;;;;;;;;3.50;95.80;;;;;;4344594;33;45009;-74
2021/01/31 15:15:53;;;;;;;;;;;3.50;95.80;;;;;;4346014;33;20057;-74
2021/01/31 15:18:23;;;;;;;;;;;3.50;95.80;;;;;;4345179;33;28269;-74